createdAt,value
2018-06-21T00:01:15.776Z,101049.48
2018-06-21T00:03:45.045Z,101046.05
2018-06-21T00:08:52.670Z,101047.69
2018-06-21T00:11:21.726Z,101036.70
2018-06-21T00:13:51.013Z,101030.52
2018-06-21T00:16:20.201Z,101031.91
2018-06-21T00:18:49.352Z,101027.50
2018-06-21T00:21:18.607Z,101026.94
2018-06-21T00:23:54.146Z,101022.70
2018-06-21T00:26:23.325Z,101015.59
2018-06-21T00:28:52.375Z,101020.11
2018-06-21T00:31:21.611Z,101011.05
2018-06-21T00:33:50.807Z,101013.57
2018-06-21T00:36:20.138Z,101014.39
2018-06-21T00:38:49.226Z,101009.02
2018-06-21T00:41:18.400Z,101001.81
2018-06-21T00:43:47.614Z,101002.87
2018-06-21T00:46:16.870Z,100997.23
2018-06-21T00:48:46.028Z,100998.79
2018-06-21T00:51:15.406Z,100996.02
2018-06-21T00:53:44.681Z,101000.28
2018-06-21T00:56:19.287Z,100997.76
2018-06-21T00:58:49.034Z,100994.34
2018-06-21T01:01:18.632Z,100987.98
2018-06-21T01:03:48.066Z,100988.06
2018-06-21T01:06:17.262Z,100983.27
2018-06-21T01:08:46.430Z,100977.08
2018-06-21T01:11:15.465Z,100978.70
2018-06-21T01:13:44.810Z,100982.39
2018-06-21T01:16:14.037Z,100978.42
2018-06-21T01:18:43.150Z,100975.15
2018-06-21T01:21:13.930Z,100976.20
2018-06-21T01:23:43.386Z,100972.55
2018-06-21T01:26:12.579Z,100965.08
2018-06-21T01:28:41.652Z,100963.20
2018-06-21T01:31:10.874Z,100955.61
2018-06-21T01:33:39.993Z,100954.22
2018-06-21T01:36:09.263Z,100947.32
2018-06-21T01:38:38.469Z,100944.48
2018-06-21T01:41:07.555Z,100932.47
2018-06-21T01:43:36.865Z,100937.62
2018-06-21T01:46:06.175Z,100939.47
2018-06-21T01:48:35.315Z,100943.38
2018-06-21T01:51:04.565Z,100939.81
2018-06-21T01:53:33.879Z,100937.62
2018-06-21T01:56:03.110Z,100931.08
2018-06-21T01:58:32.546Z,100925.31
2018-06-21T02:01:01.974Z,100924.90
2018-06-21T02:03:30.927Z,100922.71
2018-06-21T02:06:00.167Z,100923.11
2018-06-21T02:08:29.191Z,100923.05
2018-06-21T02:10:58.545Z,100919.20
2018-06-21T02:13:27.624Z,100916.92
2018-06-21T02:15:57.106Z,100915.98
2018-06-21T02:18:26.306Z,100915.48
2018-06-21T02:20:55.547Z,100919.38
2018-06-21T02:23:24.713Z,100915.37
2018-06-21T02:25:55.701Z,100909.94
2018-06-21T02:28:24.643Z,100912.78
2018-06-21T02:30:53.890Z,100906.50
2018-06-21T02:33:23.273Z,100903.69
2018-06-21T02:35:52.479Z,100899.58
2018-06-21T02:38:21.632Z,100901.88
2018-06-21T02:40:50.974Z,100892.19
2018-06-21T02:43:20.229Z,100891.37
2018-06-21T02:45:49.484Z,100888.53
2018-06-21T02:48:18.551Z,100882.17
2018-06-21T02:50:47.798Z,100887.15
2018-06-21T02:53:16.992Z,100882.09
2018-06-21T02:55:46.364Z,100875.66
2018-06-21T02:58:15.510Z,100875.42
2018-06-21T03:00:44.762Z,100868.67
2018-06-21T03:03:13.917Z,100861.25
2018-06-21T03:05:43.208Z,100857.98
2018-06-21T03:08:12.606Z,100860.78
2018-06-21T03:10:41.754Z,100851.16
2018-06-21T03:13:10.954Z,100851.90
2018-06-21T03:15:40.371Z,100850.99
2018-06-21T03:18:09.632Z,100849.97
2018-06-21T03:20:38.842Z,100846.70
2018-06-21T03:23:08.018Z,100839.53
2018-06-21T03:25:37.346Z,100840.31
2018-06-21T03:28:06.437Z,100839.60
2018-06-21T03:30:35.650Z,100843.67
2018-06-21T03:33:05.035Z,100838.22
2018-06-21T03:35:34.261Z,100835.69
2018-06-21T03:38:03.795Z,100826.75
2018-06-21T03:40:33.039Z,100832.19
2018-06-21T03:43:02.239Z,100820.69
2018-06-21T03:45:31.487Z,100819.87
2018-06-21T03:48:01.106Z,100816.47
2018-06-21T03:50:30.262Z,100813.66
2018-06-21T03:52:59.798Z,100814.40
2018-06-21T03:55:29.054Z,100811.63
2018-06-21T03:57:58.111Z,100809.33
2018-06-21T04:03:22.903Z,100811.37
2018-06-21T04:05:52.094Z,100805.29
2018-06-21T04:08:21.333Z,100801.06
2018-06-21T04:10:49.982Z,100807.47
2018-06-21T04:13:18.873Z,100802.78
2018-06-21T04:15:47.525Z,100796.02
2018-06-21T04:18:16.327Z,100797.45
2018-06-21T04:20:45.166Z,100790.66
2018-06-21T04:23:14.026Z,100787.46
2018-06-21T04:25:42.937Z,100785.38
2018-06-21T04:28:11.637Z,100785.94
2018-06-21T04:30:40.671Z,100781.66
2018-06-21T04:33:09.442Z,100786.84
2018-06-21T04:35:38.292Z,100783.17
2018-06-21T04:38:07.035Z,100777.69
2018-06-21T04:40:35.747Z,100776.57
2018-06-21T04:43:04.611Z,100774.14
2018-06-21T04:45:33.649Z,100770.39
2018-06-21T04:48:04.086Z,100770.96
2018-06-21T04:50:32.864Z,100768.77
2018-06-21T04:53:01.532Z,100775.48
2018-06-21T04:55:30.492Z,100774.09
2018-06-21T04:57:59.323Z,100764.08
2018-06-21T05:00:28.231Z,100761.86
2018-06-21T05:02:57.349Z,100756.72
2018-06-21T05:05:26.066Z,100758.16
2018-06-21T05:07:54.730Z,100750.58
2018-06-21T05:10:23.859Z,100744.99
2018-06-21T05:12:52.865Z,100744.32
2018-06-21T05:15:21.786Z,100743.36
2018-06-21T05:17:51.426Z,100744.07
2018-06-21T05:20:20.568Z,100745.39
2018-06-21T05:22:49.875Z,100751.58
2018-06-21T05:25:20.492Z,100750.32
2018-06-21T05:27:50.076Z,100748.74
2018-06-21T05:30:20.459Z,100751.16
2018-06-21T05:32:49.267Z,100751.52
2018-06-21T05:35:18.374Z,100744.33
2018-06-21T05:37:47.223Z,100737.98
2018-06-21T05:44:01.566Z,100729.96
2018-06-21T05:46:30.810Z,100721.80
2018-06-21T05:48:59.986Z,100716.36
2018-06-21T05:51:28.776Z,100707.92
2018-06-21T05:53:57.370Z,100704.36
2018-06-21T05:56:26.351Z,100708.55
2018-06-21T05:58:55.328Z,100701.45
2018-06-21T06:01:24.030Z,100695.36
2018-06-21T06:03:56.234Z,100698.03
2018-06-21T06:06:26.029Z,100694.70
2018-06-21T06:08:54.801Z,100691.00
2018-06-21T06:11:23.779Z,100687.55
2018-06-21T06:13:52.392Z,100685.25
2018-06-21T06:16:21.075Z,100684.59
2018-06-21T06:18:49.955Z,100680.05
2018-06-21T06:21:18.618Z,100680.27
2018-06-21T06:23:47.394Z,100684.09
2018-06-21T06:26:16.079Z,100678.38
2018-06-21T06:28:45.244Z,100673.85
2018-06-21T06:31:13.941Z,100670.56
2018-06-21T06:33:42.738Z,100669.36
2018-06-21T06:36:11.379Z,100660.64
2018-06-21T06:38:40.085Z,100664.61
2018-06-21T06:41:08.859Z,100663.14
2018-06-21T06:43:37.562Z,100651.60
2018-06-21T06:46:06.644Z,100643.23
2018-06-21T06:48:35.663Z,100647.55
2018-06-21T06:51:04.883Z,100637.91
2018-06-21T06:53:33.470Z,100635.86
2018-06-21T06:56:02.481Z,100629.31
2018-06-21T06:58:31.198Z,100627.51
2018-06-21T07:01:00.680Z,100620.78
2018-06-21T07:03:29.554Z,100625.41
2018-06-21T07:05:58.436Z,100616.42
2018-06-21T07:08:27.198Z,100612.84
2018-06-21T07:10:55.942Z,100604.61
2018-06-21T07:13:24.748Z,100603.69
2018-06-21T07:15:53.623Z,100596.68
2018-06-21T07:18:22.920Z,100593.84
2018-06-21T07:20:52.036Z,100592.51
2018-06-21T07:23:20.723Z,100580.78
2018-06-21T07:25:49.592Z,100584.16
2018-06-21T07:28:18.464Z,100580.63
2018-06-21T07:30:47.812Z,100570.66
2018-06-21T07:33:17.316Z,100552.06
2018-06-21T07:35:46.062Z,100550.58
2018-06-21T07:38:14.686Z,100549.64
2018-06-21T07:40:43.548Z,100540.09
2018-06-21T07:43:12.625Z,100529.97
2018-06-21T07:45:42.511Z,100524.53
2018-06-21T07:48:11.211Z,100519.91
2018-06-21T07:50:40.120Z,100513.46
2018-06-21T07:53:09.442Z,100510.62
2018-06-21T07:55:38.332Z,100501.66
2018-06-21T07:58:07.020Z,100493.81
2018-06-21T08:00:36.407Z,100489.03
2018-06-21T08:03:05.447Z,100488.99
2018-06-21T08:05:34.151Z,100483.59
2018-06-21T08:08:02.803Z,100480.20
2018-06-21T08:10:31.570Z,100491.02
2018-06-21T08:13:00.546Z,100482.94
2018-06-21T08:15:30.107Z,100477.70
2018-06-21T08:17:58.735Z,100474.13
2018-06-21T08:20:27.547Z,100474.57
2018-06-21T08:22:56.385Z,100474.17
2018-06-21T08:25:25.671Z,100464.48
2018-06-21T08:27:55.942Z,100457.87
2018-06-21T08:30:24.848Z,100454.23
2018-06-21T08:32:53.571Z,100447.25
2018-06-21T08:35:22.622Z,100443.82
2018-06-21T08:37:51.503Z,100432.42
2018-06-21T08:40:20.446Z,100437.22
2018-06-21T08:42:49.076Z,100430.42
2018-06-21T08:45:17.986Z,100430.62
2018-06-21T08:47:47.075Z,100422.21
2018-06-21T08:50:15.863Z,100423.62
2018-06-21T08:52:44.635Z,100425.34
2018-06-21T08:55:13.546Z,100411.47
2018-06-21T08:57:42.651Z,100401.44
2018-06-21T09:00:11.519Z,100411.73
2018-06-21T09:02:40.794Z,100407.98
2018-06-21T09:05:11.790Z,100391.35
2018-06-21T09:07:43.544Z,100391.91
2018-06-21T09:10:13.751Z,100392.08
2018-06-21T09:12:42.947Z,100380.48
2018-06-21T09:15:12.291Z,100375.99
2018-06-21T09:17:40.903Z,100371.84
2018-06-21T09:20:09.914Z,100367.86
2018-06-21T09:22:38.753Z,100361.97
2018-06-21T09:25:07.808Z,100359.14
2018-06-21T09:27:36.882Z,100350.48
2018-06-21T09:30:06.029Z,100339.56
2018-06-21T09:32:35.080Z,100344.56
2018-06-21T09:35:03.996Z,100348.75
2018-06-21T09:37:37.983Z,100344.75
2018-06-21T09:40:12.254Z,100345.90
2018-06-21T09:42:46.059Z,100337.81
2018-06-21T09:45:20.427Z,100322.47
2018-06-21T09:47:54.247Z,100336.16
2018-06-21T09:50:23.349Z,100328.11
2018-06-21T09:52:52.220Z,100320.11
2018-06-21T09:55:21.326Z,100322.52
2018-06-21T09:57:50.306Z,100321.72
2018-06-21T10:00:24.558Z,100308.27
2018-06-21T10:02:53.510Z,100308.11
2018-06-21T10:05:22.611Z,100312.75
2018-06-21T10:07:52.032Z,100321.31
2018-06-21T10:10:21.057Z,100306.78
2018-06-21T10:12:49.905Z,100301.16
2018-06-21T10:15:18.731Z,100311.69
2018-06-21T10:17:47.674Z,100307.53
2018-06-21T10:20:16.467Z,100297.42
2018-06-21T10:22:45.443Z,100286.77
2018-06-21T10:25:14.254Z,100289.30
2018-06-21T10:27:43.034Z,100292.41
2018-06-21T10:30:11.872Z,100302.08
2018-06-21T10:32:40.813Z,100410.67
2018-06-21T10:35:09.762Z,100347.58
2018-06-21T10:37:38.397Z,100397.42
2018-06-21T10:40:07.188Z,100425.28
2018-06-21T10:42:36.001Z,100450.70
2018-06-21T10:45:05.418Z,100461.63
2018-06-21T10:47:33.997Z,100475.01
2018-06-21T10:50:03.060Z,100520.20
2018-06-21T10:52:31.823Z,100530.39
2018-06-21T10:55:00.620Z,100546.03
2018-06-21T10:57:29.415Z,100575.23
2018-06-21T10:59:58.040Z,100578.03
2018-06-21T11:02:33.554Z,100557.45
2018-06-21T11:05:02.595Z,100560.14
2018-06-21T11:07:31.633Z,100568.17
2018-06-21T11:10:00.799Z,100594.23
2018-06-21T11:12:29.491Z,100609.05
2018-06-21T11:14:58.314Z,100613.66
2018-06-21T11:17:27.285Z,100599.02
2018-06-21T11:19:56.202Z,100620.52
2018-06-21T11:22:24.791Z,100610.81
2018-06-21T11:24:53.864Z,100636.47
2018-06-21T11:27:22.624Z,100631.69
2018-06-21T11:29:51.309Z,100643.75
2018-06-21T11:32:20.331Z,100628.23
2018-06-21T11:34:49.076Z,100630.42
2018-06-21T11:37:18.584Z,100625.69
2018-06-21T11:39:47.628Z,100625.27
2018-06-21T11:42:16.542Z,100627.41
2018-06-21T11:44:45.287Z,100647.27
2018-06-21T11:47:13.946Z,100656.09
2018-06-21T11:49:42.571Z,100655.78
2018-06-21T11:52:11.898Z,100669.31
2018-06-21T11:54:40.940Z,100691.98
2018-06-21T11:57:09.786Z,100701.39
2018-06-21T11:59:38.578Z,100720.68
2018-06-21T12:02:07.452Z,100734.12
2018-06-21T12:04:36.023Z,100751.63
2018-06-21T12:07:05.065Z,100761.84
2018-06-21T12:09:33.708Z,100776.39
2018-06-21T12:12:02.582Z,100766.78
2018-06-21T12:14:31.315Z,100768.44
2018-06-21T12:17:00.263Z,100762.69
2018-06-21T12:19:28.890Z,100776.19
2018-06-21T12:21:57.543Z,100766.69
2018-06-21T12:24:26.411Z,100784.35
2018-06-21T12:26:55.405Z,100782.00
2018-06-21T12:29:24.219Z,100803.36
2018-06-21T12:31:52.841Z,100838.64
2018-06-21T12:34:21.615Z,100847.89
2018-06-21T12:36:50.474Z,100828.03
2018-06-21T12:39:19.367Z,100823.47
2018-06-21T12:41:48.158Z,100811.42
2018-06-21T12:44:16.937Z,100794.38
2018-06-21T12:46:45.622Z,100789.27
2018-06-21T12:49:14.745Z,100800.97
2018-06-21T12:51:43.517Z,100796.01
2018-06-21T12:54:12.458Z,100775.87
2018-06-21T12:56:41.070Z,100790.03
2018-06-21T12:59:09.826Z,100792.38
2018-06-21T13:01:38.877Z,100802.03
2018-06-21T13:04:07.970Z,100807.50
2018-06-21T13:06:37.681Z,100810.79
2018-06-21T13:09:17.614Z,100814.27
2018-06-21T13:12:55.940Z,100801.39
2018-06-21T13:15:25.007Z,100788.05
2018-06-21T13:17:56.191Z,100781.47
2018-06-21T13:20:25.783Z,100792.98
2018-06-21T13:22:54.659Z,100798.38
2018-06-21T13:25:23.400Z,100797.95
2018-06-21T13:27:52.180Z,100798.55
2018-06-21T13:30:21.047Z,100804.06
2018-06-21T13:32:50.131Z,100804.98
2018-06-21T13:35:18.912Z,100804.29
2018-06-21T13:37:47.495Z,100797.83
2018-06-21T13:40:16.409Z,100798.16
2018-06-21T13:42:45.504Z,100800.00
2018-06-21T13:45:14.262Z,100804.08
2018-06-21T13:47:42.922Z,100811.53
2018-06-21T13:50:11.783Z,100835.41
2018-06-21T13:52:40.643Z,100825.01
2018-06-21T13:55:09.440Z,100856.38
2018-06-21T13:57:38.216Z,100881.03
2018-06-21T14:00:07.920Z,100880.91
2018-06-21T14:02:36.538Z,100887.03
2018-06-21T14:05:05.298Z,100888.02
2018-06-21T14:07:34.391Z,100890.69
2018-06-21T14:10:03.460Z,100894.91
2018-06-21T14:12:32.264Z,100916.52
2018-06-21T14:15:00.929Z,100909.17
2018-06-21T14:17:29.785Z,100922.72
2018-06-21T14:19:58.646Z,100923.17
2018-06-21T14:22:27.747Z,100934.47
2018-06-21T14:24:56.322Z,100931.44
2018-06-21T14:27:25.130Z,100927.66
2018-06-21T14:29:54.207Z,100936.14
2018-06-21T14:32:23.205Z,100927.99
2018-06-21T14:34:52.336Z,100925.59
2018-06-21T14:37:21.297Z,100927.66
2018-06-21T14:39:49.899Z,100932.61
2018-06-21T14:42:18.726Z,100925.45
2018-06-21T14:44:47.777Z,100931.70
2018-06-21T14:47:16.740Z,100924.20
2018-06-21T14:49:45.791Z,100923.84
2018-06-21T14:52:14.599Z,100921.41
2018-06-21T14:54:43.408Z,100934.62
2018-06-21T14:57:12.462Z,100929.39
2018-06-21T14:59:41.139Z,100929.16
2018-06-21T15:02:10.151Z,100917.14
2018-06-21T15:04:38.923Z,100912.50
2018-06-21T15:07:08.179Z,100925.58
2018-06-21T15:09:36.891Z,100914.22
2018-06-21T15:12:05.668Z,100891.20
2018-06-21T15:14:34.326Z,100918.71
2018-06-21T15:17:03.143Z,100916.43
2018-06-21T15:19:32.062Z,100902.76
2018-06-21T15:22:00.684Z,100913.28
2018-06-21T15:24:29.405Z,100920.69
2018-06-21T15:26:58.156Z,100904.80
2018-06-21T15:29:26.822Z,100915.08
2018-06-21T15:31:55.564Z,100901.52
2018-06-21T15:34:24.330Z,100904.32
2018-06-21T15:36:53.444Z,100913.20
2018-06-21T15:39:23.781Z,100907.66
2018-06-21T15:41:52.430Z,100915.11
2018-06-21T15:44:21.129Z,100929.91
2018-06-21T15:46:50.059Z,100911.28
2018-06-21T15:49:18.917Z,100919.19
2018-06-21T15:51:47.709Z,100924.49
2018-06-21T15:54:16.362Z,100930.56
2018-06-21T15:56:45.349Z,100937.12
2018-06-21T15:59:14.470Z,100937.71
2018-06-21T16:01:43.594Z,100927.76
2018-06-21T16:04:12.475Z,100929.59
2018-06-21T16:06:41.164Z,100935.52
2018-06-21T16:09:11.079Z,100939.33
2018-06-21T16:11:40.186Z,100956.88
2018-06-21T16:14:09.052Z,100951.47
2018-06-21T16:16:37.839Z,100950.62
2018-06-21T16:19:06.541Z,100963.02
2018-06-21T16:21:35.314Z,100958.30
2018-06-21T16:24:04.123Z,100949.00
2018-06-21T16:26:33.078Z,100964.09
2018-06-21T16:29:02.299Z,100968.13
2018-06-21T16:31:31.014Z,100987.11
2018-06-21T16:33:59.807Z,100982.67
2018-06-21T16:36:28.664Z,100991.64
2018-06-21T16:38:57.527Z,101000.38
2018-06-21T16:41:26.704Z,100996.42
2018-06-21T16:43:55.529Z,100983.72
2018-06-21T16:46:24.421Z,101001.44
2018-06-21T16:48:53.161Z,100998.61
2018-06-21T16:51:22.015Z,100996.44
2018-06-21T16:53:50.711Z,101000.70
2018-06-21T16:56:19.834Z,100995.09
2018-06-21T16:58:48.496Z,101013.02
2018-06-21T17:01:17.251Z,101021.11
2018-06-21T17:03:46.198Z,101023.04
2018-06-21T17:06:15.153Z,101000.80
2018-06-21T17:08:44.101Z,101013.67
2018-06-21T17:11:12.835Z,101015.84
2018-06-21T17:13:41.805Z,101021.89
2018-06-21T17:16:10.620Z,101044.64
2018-06-21T17:18:39.444Z,101027.38
2018-06-21T17:21:08.495Z,101029.34
2018-06-21T17:23:37.167Z,101028.84
2018-06-21T17:26:06.172Z,101050.16
2018-06-21T17:28:34.986Z,101038.84
2018-06-21T17:31:03.691Z,101047.18
2018-06-21T17:33:32.333Z,101044.45
2018-06-21T17:36:01.228Z,101055.09
2018-06-21T17:38:30.100Z,101057.00
2018-06-21T17:40:59.624Z,101055.37
2018-06-21T17:43:28.500Z,101046.61
2018-06-21T17:45:57.370Z,101058.28
2018-06-21T17:48:26.323Z,101057.06
2018-06-21T17:50:55.391Z,101053.27
2018-06-21T17:53:24.855Z,101060.70
2018-06-21T17:55:54.463Z,101060.91
2018-06-21T17:58:23.961Z,101076.02
2018-06-21T18:00:53.721Z,101064.78
2018-06-21T18:03:22.987Z,101074.41
2018-06-21T18:05:52.314Z,101071.28
2018-06-21T18:08:21.671Z,101076.47
2018-06-21T18:10:51.390Z,101073.87
2018-06-21T18:13:20.659Z,101074.81
2018-06-21T18:15:50.137Z,101079.09
2018-06-21T18:18:19.528Z,101083.94
2018-06-21T18:20:49.029Z,101086.02
2018-06-21T18:23:18.779Z,101089.46
2018-06-21T18:25:48.578Z,101088.89
2018-06-21T18:28:18.118Z,101096.94
2018-06-21T18:30:47.663Z,101094.87
2018-06-21T18:33:17.278Z,101099.66
2018-06-21T18:35:46.890Z,101112.45
2018-06-21T18:38:16.363Z,101116.33
2018-06-21T18:40:45.911Z,101117.38
2018-06-21T18:43:15.295Z,101118.05
2018-06-21T18:45:44.815Z,101116.62
2018-06-21T18:48:14.204Z,101127.84
2018-06-21T18:50:43.754Z,101130.23
2018-06-21T18:53:13.552Z,101131.95
2018-06-21T18:55:43.199Z,101130.69
2018-06-21T18:58:13.624Z,101132.07
2018-06-21T19:00:43.218Z,101137.34
2018-06-21T19:03:13.169Z,101138.36
2018-06-21T19:05:42.783Z,101148.72
2018-06-21T19:08:17.546Z,101149.77
2018-06-21T19:10:52.388Z,101163.38
2018-06-21T19:13:21.784Z,101161.78
2018-06-21T19:15:51.446Z,101167.81
2018-06-21T19:18:20.985Z,101172.80
2018-06-21T19:20:50.345Z,101178.66
2018-06-21T19:23:19.594Z,101171.25
2018-06-21T19:25:49.044Z,101182.46
2018-06-21T19:28:18.507Z,101188.92
2018-06-21T19:30:47.963Z,101186.81
2018-06-21T19:33:18.223Z,101198.37
2018-06-21T19:35:47.744Z,101196.00
2018-06-21T19:38:17.125Z,101202.80
2018-06-21T19:40:46.593Z,101214.69
2018-06-21T19:43:16.110Z,101209.56
2018-06-21T19:45:45.369Z,101212.48
2018-06-21T19:48:14.492Z,101213.39
2018-06-21T19:50:43.637Z,101210.95
2018-06-21T19:53:12.508Z,101216.09
2018-06-21T19:55:41.846Z,101223.42
2018-06-21T19:58:11.460Z,101221.23
2018-06-21T20:00:41.131Z,101224.98
2018-06-21T20:03:10.592Z,101220.70
2018-06-21T20:05:39.904Z,101217.91
2018-06-21T20:08:09.189Z,101223.86
2018-06-21T20:10:38.501Z,101224.77
2018-06-21T20:13:07.722Z,101223.77
2018-06-21T20:15:49.721Z,101220.91
2018-06-21T20:18:19.331Z,101229.78
2018-06-21T20:20:48.560Z,101239.64
2018-06-21T20:23:23.067Z,101237.73
2018-06-21T20:25:53.709Z,101240.92
2018-06-21T20:28:22.799Z,101240.16
2018-06-21T20:30:52.219Z,101246.53
2018-06-21T20:33:21.734Z,101252.21
2018-06-21T20:35:51.083Z,101251.39
2018-06-21T20:38:20.358Z,101252.36
2018-06-21T20:40:49.484Z,101259.02
2018-06-21T20:43:18.376Z,101257.06
2018-06-21T20:45:47.459Z,101264.14
2018-06-21T20:48:16.199Z,101255.61
2018-06-21T20:50:45.438Z,101265.45
2018-06-21T20:53:14.212Z,101264.30
2018-06-21T20:55:44.167Z,101259.75
2018-06-21T20:58:12.880Z,101259.19
2018-06-21T21:00:41.543Z,101257.34
2018-06-21T21:03:10.711Z,101271.05
2018-06-21T21:05:39.818Z,101271.06
2018-06-21T21:08:10.318Z,101270.72
2018-06-21T21:10:39.240Z,101271.23
2018-06-21T21:13:08.017Z,101270.72
2018-06-21T21:15:37.631Z,101265.28
2018-06-21T21:18:06.349Z,101264.29
2018-06-21T21:20:35.295Z,101266.99
2018-06-21T21:23:04.141Z,101269.48
2018-06-21T21:25:32.887Z,101268.24
2018-06-21T21:28:01.842Z,101267.28
2018-06-21T21:30:31.030Z,101266.91
2018-06-21T21:33:00.060Z,101274.06
2018-06-21T21:35:28.847Z,101266.98
2018-06-21T21:37:57.483Z,101263.73
2018-06-21T21:40:26.122Z,101263.05
2018-06-21T21:42:54.786Z,101258.05
2018-06-21T21:45:23.743Z,101257.69
2018-06-21T21:47:52.357Z,101255.09
2018-06-21T21:50:21.293Z,101255.98
2018-06-21T21:52:51.031Z,101253.34
2018-06-21T21:55:19.894Z,101258.16
2018-06-21T21:57:48.648Z,101255.36
2018-06-21T22:00:40.159Z,101256.47
2018-06-21T22:03:10.406Z,101255.84
2018-06-21T22:05:40.091Z,101253.83
2018-06-21T22:08:09.940Z,101249.98
2018-06-21T22:10:39.443Z,101252.23
2018-06-21T22:13:08.519Z,101251.42
2018-06-21T22:15:37.779Z,101251.47
2018-06-21T22:18:07.042Z,101258.57
2018-06-21T22:20:36.535Z,101263.32
2018-06-21T22:23:05.826Z,101268.59
2018-06-21T22:25:35.117Z,101256.20
2018-06-21T22:28:04.418Z,101256.83
2018-06-21T22:30:33.766Z,101256.27
2018-06-21T22:33:02.454Z,101256.32
2018-06-21T22:35:31.107Z,101258.80
2018-06-21T22:37:59.739Z,101261.61
2018-06-21T22:40:28.488Z,101259.12
2018-06-21T22:42:58.080Z,101255.28
2018-06-21T22:45:27.339Z,101256.94
2018-06-21T22:47:56.475Z,101257.77
2018-06-21T22:50:25.571Z,101249.84
2018-06-21T22:52:54.912Z,101249.28
2018-06-21T22:55:24.375Z,101254.85
2018-06-21T22:57:53.471Z,101255.62
2018-06-21T23:00:22.541Z,101254.03
2018-06-21T23:02:51.460Z,101254.91
2018-06-21T23:05:20.237Z,101253.31
2018-06-21T23:07:48.844Z,101252.20
2018-06-21T23:10:17.631Z,101258.03
2018-06-21T23:12:46.397Z,101256.71
2018-06-21T23:15:15.524Z,101253.64
2018-06-21T23:17:44.725Z,101255.83
2018-06-21T23:20:15.041Z,101252.67
2018-06-21T23:22:43.742Z,101252.62
2018-06-21T23:25:13.846Z,101252.95
2018-06-21T23:27:43.649Z,101247.46
2018-06-21T23:30:12.673Z,101244.42
2018-06-21T23:32:41.295Z,101239.80
2018-06-21T23:35:10.268Z,101234.03
2018-06-21T23:37:38.944Z,101235.97
2018-06-21T23:40:07.816Z,101242.00
2018-06-21T23:42:36.918Z,101242.59
2018-06-21T23:45:05.580Z,101238.80
2018-06-21T23:47:34.263Z,101237.71
2018-06-21T23:50:02.990Z,101231.71
2018-06-21T23:52:31.727Z,101234.69
2018-06-21T23:55:00.280Z,101230.34
2018-06-21T23:57:29.218Z,101232.85
2018-06-21T23:59:57.914Z,101241.34
